sensor_id;sensor_type;location;lat;lon;timestamp;temperature;humidity
68691;DHT22;55675;49.588;8.640;2022-11-06T00:00:08;9.60;91.70
68691;DHT22;55675;49.588;8.640;2022-11-06T00:02:34;9.50;91.80
68691;DHT22;55675;49.588;8.640;2022-11-06T00:04:59;9.40;91.80
68691;DHT22;55675;49.588;8.640;2022-11-06T00:07:46;9.40;91.90
68691;DHT22;55675;49.588;8.640;2022-11-06T00:10:13;9.30;91.90
68691;DHT22;55675;49.588;8.640;2022-11-06T00:12:39;9.30;91.90
68691;DHT22;55675;49.588;8.640;2022-11-06T00:15:05;9.30;92.00
68691;DHT22;55675;49.588;8.640;2022-11-06T00:17:31;9.20;92.00
68691;DHT22;55675;49.588;8.640;2022-11-06T00:19:56;9.10;92.00
68691;DHT22;55675;49.588;8.640;2022-11-06T00:22:22;9.10;92.00
68691;DHT22;55675;49.588;8.640;2022-11-06T00:24:47;9.10;92.00
68691;DHT22;55675;49.588;8.640;2022-11-06T00:27:16;9.00;92.00
68691;DHT22;55675;49.588;8.640;2022-11-06T00:29:41;8.90;92.00
68691;DHT22;55675;49.588;8.640;2022-11-06T00:32:07;8.90;92.00
68691;DHT22;55675;49.588;8.640;2022-11-06T00:34:33;8.90;92.10
68691;DHT22;55675;49.588;8.640;2022-11-06T00:36:59;8.80;92.10
68691;DHT22;55675;49.588;8.640;2022-11-06T00:39:24;8.80;92.10
68691;DHT22;55675;49.588;8.640;2022-11-06T00:41:50;8.90;92.20
68691;DHT22;55675;49.588;8.640;2022-11-06T00:44:15;8.90;92.20
68691;DHT22;55675;49.588;8.640;2022-11-06T00:46:41;8.90;92.20
68691;DHT22;55675;49.588;8.640;2022-11-06T00:49:06;9.00;92.30
68691;DHT22;55675;49.588;8.640;2022-11-06T00:51:34;9.00;92.30
68691;DHT22;55675;49.588;8.640;2022-11-06T00:54:03;9.00;92.20
68691;DHT22;55675;49.588;8.640;2022-11-06T00:56:29;8.90;92.20
68691;DHT22;55675;49.588;8.640;2022-11-06T00:58:58;8.90;92.20
68691;DHT22;55675;49.588;8.640;2022-11-06T01:03:56;8.70;92.40
68691;DHT22;55675;49.588;8.640;2022-11-06T01:06:24;8.70;92.40
68691;DHT22;55675;49.588;8.640;2022-11-06T01:08:50;8.70;92.30
68691;DHT22;55675;49.588;8.640;2022-11-06T01:11:25;8.70;92.30
68691;DHT22;55675;49.588;8.640;2022-11-06T01:13:53;8.60;92.20
68691;DHT22;55675;49.588;8.640;2022-11-06T01:16:20;8.50;92.20
68691;DHT22;55675;49.588;8.640;2022-11-06T01:18:47;8.50;92.30
68691;DHT22;55675;49.588;8.640;2022-11-06T01:21:36;8.40;92.40
68691;DHT22;55675;49.588;8.640;2022-11-06T01:24:05;8.30;92.50
68691;DHT22;55675;49.588;8.640;2022-11-06T01:26:31;8.30;92.60
68691;DHT22;55675;49.588;8.640;2022-11-06T01:28:57;8.30;92.60
68691;DHT22;55675;49.588;8.640;2022-11-06T01:31:26;8.20;92.60
68691;DHT22;55675;49.588;8.640;2022-11-06T01:33:53;8.20;92.70
68691;DHT22;55675;49.588;8.640;2022-11-06T01:36:19;8.10;92.80
68691;DHT22;55675;49.588;8.640;2022-11-06T01:38:47;8.10;92.80
68691;DHT22;55675;49.588;8.640;2022-11-06T01:41:18;8.10;92.90
68691;DHT22;55675;49.588;8.640;2022-11-06T01:46:17;8.00;92.90
68691;DHT22;55675;49.588;8.640;2022-11-06T01:48:46;8.00;92.80
68691;DHT22;55675;49.588;8.640;2022-11-06T01:51:13;8.00;92.80
68691;DHT22;55675;49.588;8.640;2022-11-06T01:53:39;7.90;92.80
68691;DHT22;55675;49.588;8.640;2022-11-06T01:56:08;7.90;92.90
68691;DHT22;55675;49.588;8.640;2022-11-06T01:58:36;7.90;92.90
68691;DHT22;55675;49.588;8.640;2022-11-06T02:01:03;7.80;92.90
68691;DHT22;55675;49.588;8.640;2022-11-06T02:03:29;7.80;93.00
68691;DHT22;55675;49.588;8.640;2022-11-06T02:05:56;7.80;93.00
68691;DHT22;55675;49.588;8.640;2022-11-06T02:08:22;7.80;93.10
68691;DHT22;55675;49.588;8.640;2022-11-06T02:10:48;7.80;93.10
68691;DHT22;55675;49.588;8.640;2022-11-06T02:18:43;7.70;93.30
68691;DHT22;55675;49.588;8.640;2022-11-06T02:21:40;7.70;93.30
68691;DHT22;55675;49.588;8.640;2022-11-06T02:27:00;7.70;93.30
68691;DHT22;55675;49.588;8.640;2022-11-06T02:29:32;7.70;93.30
68691;DHT22;55675;49.588;8.640;2022-11-06T02:32:03;7.70;93.40
68691;DHT22;55675;49.588;8.640;2022-11-06T02:34:31;7.70;93.40
68691;DHT22;55675;49.588;8.640;2022-11-06T02:37:03;7.70;93.40
68691;DHT22;55675;49.588;8.640;2022-11-06T02:39:33;7.60;93.50
68691;DHT22;55675;49.588;8.640;2022-11-06T02:42:02;7.60;93.50
68691;DHT22;55675;49.588;8.640;2022-11-06T02:44:31;7.60;93.50
68691;DHT22;55675;49.588;8.640;2022-11-06T02:47:09;7.60;93.50
68691;DHT22;55675;49.588;8.640;2022-11-06T02:49:47;7.70;93.60
68691;DHT22;55675;49.588;8.640;2022-11-06T02:52:24;7.60;93.60
68691;DHT22;55675;49.588;8.640;2022-11-06T02:55:03;7.60;93.70
68691;DHT22;55675;49.588;8.640;2022-11-06T02:57:34;7.60;93.70
68691;DHT22;55675;49.588;8.640;2022-11-06T03:00:08;7.60;93.60
68691;DHT22;55675;49.588;8.640;2022-11-06T03:08:25;7.60;93.60
68691;DHT22;55675;49.588;8.640;2022-11-06T03:11:24;7.60;93.70
68691;DHT22;55675;49.588;8.640;2022-11-06T03:14:03;7.60;93.70
68691;DHT22;55675;49.588;8.640;2022-11-06T03:16:38;7.60;93.70
68691;DHT22;55675;49.588;8.640;2022-11-06T03:24:42;7.60;93.60
68691;DHT22;55675;49.588;8.640;2022-11-06T03:27:21;7.60;93.60
68691;DHT22;55675;49.588;8.640;2022-11-06T03:30:02;7.50;93.60
68691;DHT22;55675;49.588;8.640;2022-11-06T03:35:22;7.50;93.80
68691;DHT22;55675;49.588;8.640;2022-11-06T03:40:18;7.50;94.00
68691;DHT22;55675;49.588;8.640;2022-11-06T03:42:45;7.60;94.00
68691;DHT22;55675;49.588;8.640;2022-11-06T03:45:16;7.50;93.80
68691;DHT22;55675;49.588;8.640;2022-11-06T03:47:46;7.50;93.70
68691;DHT22;55675;49.588;8.640;2022-11-06T03:50:19;7.50;93.70
68691;DHT22;55675;49.588;8.640;2022-11-06T03:52:57;7.40;93.70
68691;DHT22;55675;49.588;8.640;2022-11-06T03:55:30;7.40;93.70
68691;DHT22;55675;49.588;8.640;2022-11-06T03:58:02;7.40;93.70
68691;DHT22;55675;49.588;8.640;2022-11-06T04:00:31;7.40;93.70
68691;DHT22;55675;49.588;8.640;2022-11-06T04:03:01;7.40;93.70
68691;DHT22;55675;49.588;8.640;2022-11-06T04:05:41;7.40;93.80
68691;DHT22;55675;49.588;8.640;2022-11-06T04:08:10;7.40;93.90
68691;DHT22;55675;49.588;8.640;2022-11-06T04:10:58;7.40;93.90
68691;DHT22;55675;49.588;8.640;2022-11-06T04:13:45;7.40;93.90
68691;DHT22;55675;49.588;8.640;2022-11-06T04:16:33;7.30;93.90
68691;DHT22;55675;49.588;8.640;2022-11-06T04:19:00;7.40;93.90
68691;DHT22;55675;49.588;8.640;2022-11-06T04:30:07;7.30;93.80
68691;DHT22;55675;49.588;8.640;2022-11-06T04:32:40;7.30;93.80
68691;DHT22;55675;49.588;8.640;2022-11-06T04:40:52;7.20;93.80
68691;DHT22;55675;49.588;8.640;2022-11-06T04:43:35;7.20;93.80
68691;DHT22;55675;49.588;8.640;2022-11-06T04:46:06;7.20;93.80
68691;DHT22;55675;49.588;8.640;2022-11-06T04:48:34;7.20;93.80
68691;DHT22;55675;49.588;8.640;2022-11-06T04:51:05;7.20;93.80
68691;DHT22;55675;49.588;8.640;2022-11-06T04:53:32;7.20;93.80
68691;DHT22;55675;49.588;8.640;2022-11-06T04:56:08;7.20;93.90
68691;DHT22;55675;49.588;8.640;2022-11-06T04:58:34;7.20;93.80
68691;DHT22;55675;49.588;8.640;2022-11-06T05:01:00;7.20;93.80
68691;DHT22;55675;49.588;8.640;2022-11-06T05:03:25;7.20;94.10
68691;DHT22;55675;49.588;8.640;2022-11-06T05:05:51;7.20;93.70
68691;DHT22;55675;49.588;8.640;2022-11-06T05:08:18;7.20;93.70
68691;DHT22;55675;49.588;8.640;2022-11-06T05:10:44;7.20;93.70
68691;DHT22;55675;49.588;8.640;2022-11-06T05:13:10;7.20;93.70
68691;DHT22;55675;49.588;8.640;2022-11-06T05:15:36;7.10;93.70
68691;DHT22;55675;49.588;8.640;2022-11-06T05:18:03;7.10;93.70
68691;DHT22;55675;49.588;8.640;2022-11-06T05:20:29;7.00;93.80
68691;DHT22;55675;49.588;8.640;2022-11-06T05:22:55;7.00;93.80
68691;DHT22;55675;49.588;8.640;2022-11-06T05:25:30;7.00;93.80
68691;DHT22;55675;49.588;8.640;2022-11-06T05:27:56;7.00;93.80
68691;DHT22;55675;49.588;8.640;2022-11-06T05:30:22;6.90;93.70
68691;DHT22;55675;49.588;8.640;2022-11-06T05:32:48;6.90;93.70
68691;DHT22;55675;49.588;8.640;2022-11-06T05:35:15;6.90;93.70
68691;DHT22;55675;49.588;8.640;2022-11-06T05:37:40;6.90;93.80
68691;DHT22;55675;49.588;8.640;2022-11-06T05:40:06;6.80;93.80
68691;DHT22;55675;49.588;8.640;2022-11-06T05:42:33;6.80;93.80
68691;DHT22;55675;49.588;8.640;2022-11-06T05:45:00;6.80;93.80
68691;DHT22;55675;49.588;8.640;2022-11-06T05:47:26;6.80;93.80
68691;DHT22;55675;49.588;8.640;2022-11-06T05:49:51;6.80;93.70
68691;DHT22;55675;49.588;8.640;2022-11-06T05:52:17;6.70;93.60
68691;DHT22;55675;49.588;8.640;2022-11-06T05:54:42;6.60;93.60
68691;DHT22;55675;49.588;8.640;2022-11-06T05:57:08;6.60;93.70
68691;DHT22;55675;49.588;8.640;2022-11-06T05:59:33;6.50;93.70
68691;DHT22;55675;49.588;8.640;2022-11-06T06:01:59;6.50;93.70
68691;DHT22;55675;49.588;8.640;2022-11-06T06:04:24;6.50;93.70
68691;DHT22;55675;49.588;8.640;2022-11-06T06:06:51;6.50;93.70
68691;DHT22;55675;49.588;8.640;2022-11-06T06:09:16;6.40;93.70
68691;DHT22;55675;49.588;8.640;2022-11-06T06:11:42;6.50;93.80
68691;DHT22;55675;49.588;8.640;2022-11-06T06:14:07;6.40;93.70
68691;DHT22;55675;49.588;8.640;2022-11-06T06:16:33;6.40;93.70
68691;DHT22;55675;49.588;8.640;2022-11-06T06:18:58;6.40;93.70
68691;DHT22;55675;49.588;8.640;2022-11-06T06:21:24;6.40;93.80
68691;DHT22;55675;49.588;8.640;2022-11-06T06:23:49;6.40;93.80
68691;DHT22;55675;49.588;8.640;2022-11-06T06:26:15;6.40;93.80
68691;DHT22;55675;49.588;8.640;2022-11-06T06:28:41;6.40;93.70
68691;DHT22;55675;49.588;8.640;2022-11-06T06:31:07;6.40;93.70
68691;DHT22;55675;49.588;8.640;2022-11-06T06:33:34;6.50;93.70
68691;DHT22;55675;49.588;8.640;2022-11-06T06:36:03;6.50;93.70
68691;DHT22;55675;49.588;8.640;2022-11-06T06:38:28;6.50;93.70
68691;DHT22;55675;49.588;8.640;2022-11-06T06:40:54;6.50;93.70
68691;DHT22;55675;49.588;8.640;2022-11-06T06:43:20;6.50;93.70
68691;DHT22;55675;49.588;8.640;2022-11-06T06:45:45;6.50;93.70
68691;DHT22;55675;49.588;8.640;2022-11-06T06:48:11;6.50;93.70
68691;DHT22;55675;49.588;8.640;2022-11-06T06:50:36;6.50;93.70
68691;DHT22;55675;49.588;8.640;2022-11-06T06:53:02;6.50;93.70
68691;DHT22;55675;49.588;8.640;2022-11-06T06:55:28;6.50;93.80
68691;DHT22;55675;49.588;8.640;2022-11-06T06:57:59;6.60;94.00
68691;DHT22;55675;49.588;8.640;2022-11-06T07:00:27;6.70;94.20
68691;DHT22;55675;49.588;8.640;2022-11-06T07:02:52;6.80;94.30
68691;DHT22;55675;49.588;8.640;2022-11-06T07:05:19;6.90;94.50
68691;DHT22;55675;49.588;8.640;2022-11-06T07:07:44;7.00;94.60
68691;DHT22;55675;49.588;8.640;2022-11-06T07:10:10;7.20;94.60
68691;DHT22;55675;49.588;8.640;2022-11-06T07:12:36;7.30;94.60
68691;DHT22;55675;49.588;8.640;2022-11-06T07:15:02;7.40;94.60
68691;DHT22;55675;49.588;8.640;2022-11-06T07:17:27;7.50;94.50
68691;DHT22;55675;49.588;8.640;2022-11-06T07:19:53;7.60;94.50
68691;DHT22;55675;49.588;8.640;2022-11-06T07:22:18;7.70;94.40
68691;DHT22;55675;49.588;8.640;2022-11-06T07:24:44;7.80;94.10
68691;DHT22;55675;49.588;8.640;2022-11-06T07:27:09;7.90;93.80
68691;DHT22;55675;49.588;8.640;2022-11-06T07:29:35;8.00;93.80
68691;DHT22;55675;49.588;8.640;2022-11-06T07:32:00;8.10;93.60
68691;DHT22;55675;49.588;8.640;2022-11-06T07:34:26;8.20;93.10
68691;DHT22;55675;49.588;8.640;2022-11-06T07:36:51;8.30;92.90
68691;DHT22;55675;49.588;8.640;2022-11-06T07:39:17;8.30;92.90
68691;DHT22;55675;49.588;8.640;2022-11-06T07:41:42;8.40;92.90
68691;DHT22;55675;49.588;8.640;2022-11-06T07:44:08;8.40;92.90
68691;DHT22;55675;49.588;8.640;2022-11-06T07:46:34;8.50;92.80
68691;DHT22;55675;49.588;8.640;2022-11-06T07:48:59;8.60;92.60
68691;DHT22;55675;49.588;8.640;2022-11-06T07:51:25;8.60;92.50
68691;DHT22;55675;49.588;8.640;2022-11-06T07:53:50;8.70;92.50
68691;DHT22;55675;49.588;8.640;2022-11-06T07:56:16;8.80;92.50
68691;DHT22;55675;49.588;8.640;2022-11-06T07:58:41;8.90;92.20
68691;DHT22;55675;49.588;8.640;2022-11-06T08:01:13;8.90;91.70
68691;DHT22;55675;49.588;8.640;2022-11-06T08:03:39;8.90;91.70
68691;DHT22;55675;49.588;8.640;2022-11-06T08:06:05;9.00;91.70
68691;DHT22;55675;49.588;8.640;2022-11-06T08:08:31;9.10;91.60
68691;DHT22;55675;49.588;8.640;2022-11-06T08:11:05;9.20;91.30
68691;DHT22;55675;49.588;8.640;2022-11-06T08:13:31;9.30;91.00
68691;DHT22;55675;49.588;8.640;2022-11-06T08:16:01;9.40;91.00
68691;DHT22;55675;49.588;8.640;2022-11-06T08:18:27;9.50;90.90
68691;DHT22;55675;49.588;8.640;2022-11-06T08:20:52;9.50;90.60
68691;DHT22;55675;49.588;8.640;2022-11-06T08:23:18;9.60;90.50
68691;DHT22;55675;49.588;8.640;2022-11-06T08:25:44;9.60;90.40
68691;DHT22;55675;49.588;8.640;2022-11-06T08:28:09;9.70;90.50
68691;DHT22;55675;49.588;8.640;2022-11-06T08:30:35;9.70;90.60
68691;DHT22;55675;49.588;8.640;2022-11-06T08:33:04;9.70;90.60
68691;DHT22;55675;49.588;8.640;2022-11-06T08:35:32;9.70;90.50
68691;DHT22;55675;49.588;8.640;2022-11-06T08:37:58;9.80;90.60
68691;DHT22;55675;49.588;8.640;2022-11-06T08:40:24;9.80;90.40
68691;DHT22;55675;49.588;8.640;2022-11-06T08:42:49;9.80;90.40
68691;DHT22;55675;49.588;8.640;2022-11-06T08:45:15;9.80;90.40
68691;DHT22;55675;49.588;8.640;2022-11-06T08:47:41;9.90;90.00
68691;DHT22;55675;49.588;8.640;2022-11-06T08:50:06;9.90;89.90
68691;DHT22;55675;49.588;8.640;2022-11-06T08:52:32;10.00;89.60
68691;DHT22;55675;49.588;8.640;2022-11-06T08:54:57;10.00;89.60
68691;DHT22;55675;49.588;8.640;2022-11-06T08:57:23;10.10;90.30
68691;DHT22;55675;49.588;8.640;2022-11-06T08:59:48;10.10;90.00
68691;DHT22;55675;49.588;8.640;2022-11-06T09:02:14;10.00;89.70
68691;DHT22;55675;49.588;8.640;2022-11-06T09:04:40;10.00;90.00
68691;DHT22;55675;49.588;8.640;2022-11-06T09:07:06;10.00;90.40
68691;DHT22;55675;49.588;8.640;2022-11-06T09:09:31;10.00;90.00
68691;DHT22;55675;49.588;8.640;2022-11-06T09:11:58;10.00;90.20
68691;DHT22;55675;49.588;8.640;2022-11-06T09:14:24;10.10;90.10
68691;DHT22;55675;49.588;8.640;2022-11-06T09:16:50;10.10;90.00
68691;DHT22;55675;49.588;8.640;2022-11-06T09:19:16;10.20;89.60
68691;DHT22;55675;49.588;8.640;2022-11-06T09:21:41;10.20;89.70
68691;DHT22;55675;49.588;8.640;2022-11-06T09:24:07;10.30;89.40
68691;DHT22;55675;49.588;8.640;2022-11-06T09:26:33;10.40;89.00
68691;DHT22;55675;49.588;8.640;2022-11-06T09:28:58;10.50;89.00
68691;DHT22;55675;49.588;8.640;2022-11-06T09:31:24;10.60;88.70
68691;DHT22;55675;49.588;8.640;2022-11-06T09:33:49;10.70;88.60
68691;DHT22;55675;49.588;8.640;2022-11-06T09:36:15;10.80;88.00
68691;DHT22;55675;49.588;8.640;2022-11-06T09:38:41;10.90;87.70
68691;DHT22;55675;49.588;8.640;2022-11-06T09:41:25;11.00;87.60
68691;DHT22;55675;49.588;8.640;2022-11-06T09:46:50;11.30;86.20
68691;DHT22;55675;49.588;8.640;2022-11-06T09:52:31;11.50;85.60
68691;DHT22;55675;49.588;8.640;2022-11-06T09:55:05;11.60;85.80
68691;DHT22;55675;49.588;8.640;2022-11-06T09:57:38;11.70;85.40
68691;DHT22;55675;49.588;8.640;2022-11-06T10:00:07;11.80;85.30
68691;DHT22;55675;49.588;8.640;2022-11-06T10:02:46;11.90;85.30
68691;DHT22;55675;49.588;8.640;2022-11-06T10:07:49;12.10;84.60
68691;DHT22;55675;49.588;8.640;2022-11-06T10:10:18;12.20;84.10
68691;DHT22;55675;49.588;8.640;2022-11-06T10:18:15;12.40;83.70
68691;DHT22;55675;49.588;8.640;2022-11-06T10:20:54;12.40;83.70
68691;DHT22;55675;49.588;8.640;2022-11-06T10:23:44;12.50;82.90
68691;DHT22;55675;49.588;8.640;2022-11-06T10:26:17;12.50;81.00
68691;DHT22;55675;49.588;8.640;2022-11-06T10:31:37;12.60;79.80
68691;DHT22;55675;49.588;8.640;2022-11-06T10:34:14;12.70;79.40
68691;DHT22;55675;49.588;8.640;2022-11-06T10:36:53;12.70;78.90
68691;DHT22;55675;49.588;8.640;2022-11-06T10:39:25;12.80;78.90
68691;DHT22;55675;49.588;8.640;2022-11-06T10:42:01;12.80;77.60
68691;DHT22;55675;49.588;8.640;2022-11-06T10:44:32;12.80;77.00
68691;DHT22;55675;49.588;8.640;2022-11-06T10:47:20;12.80;76.90
68691;DHT22;55675;49.588;8.640;2022-11-06T10:49:54;12.90;76.60
68691;DHT22;55675;49.588;8.640;2022-11-06T10:55:19;13.10;76.50
68691;DHT22;55675;49.588;8.640;2022-11-06T10:57:57;13.20;75.80
68691;DHT22;55675;49.588;8.640;2022-11-06T11:00:24;13.20;75.70
68691;DHT22;55675;49.588;8.640;2022-11-06T11:02:55;13.30;75.70
68691;DHT22;55675;49.588;8.640;2022-11-06T11:05:24;13.30;74.60
68691;DHT22;55675;49.588;8.640;2022-11-06T11:07:50;13.30;74.80
68691;DHT22;55675;49.588;8.640;2022-11-06T11:12:48;13.40;73.90
68691;DHT22;55675;49.588;8.640;2022-11-06T11:15:19;13.50;74.60
68691;DHT22;55675;49.588;8.640;2022-11-06T11:18:11;13.50;75.40
68691;DHT22;55675;49.588;8.640;2022-11-06T11:20:44;13.60;74.10
68691;DHT22;55675;49.588;8.640;2022-11-06T11:23:20;13.60;73.90
68691;DHT22;55675;49.588;8.640;2022-11-06T11:25:49;13.70;73.20
68691;DHT22;55675;49.588;8.640;2022-11-06T11:31:15;13.80;74.60
68691;DHT22;55675;49.588;8.640;2022-11-06T11:33:51;13.90;74.90
68691;DHT22;55675;49.588;8.640;2022-11-06T11:36:17;13.80;74.70
68691;DHT22;55675;49.588;8.640;2022-11-06T11:38:43;13.80;74.00
68691;DHT22;55675;49.588;8.640;2022-11-06T11:43:43;14.00;74.80
68691;DHT22;55675;49.588;8.640;2022-11-06T11:46:19;14.20;73.00
68691;DHT22;55675;49.588;8.640;2022-11-06T11:48:56;14.30;72.50
68691;DHT22;55675;49.588;8.640;2022-11-06T11:54:21;14.60;71.30
68691;DHT22;55675;49.588;8.640;2022-11-06T11:59:43;14.80;68.00
68691;DHT22;55675;49.588;8.640;2022-11-06T12:02:16;15.00;67.30
68691;DHT22;55675;49.588;8.640;2022-11-06T12:04:44;15.20;65.50
68691;DHT22;55675;49.588;8.640;2022-11-06T12:09:53;15.60;65.00
68691;DHT22;55675;49.588;8.640;2022-11-06T12:12:29;15.90;65.40
68691;DHT22;55675;49.588;8.640;2022-11-06T12:17:36;16.30;62.30
68691;DHT22;55675;49.588;8.640;2022-11-06T12:20:14;16.40;62.60
68691;DHT22;55675;49.588;8.640;2022-11-06T12:22:44;16.40;61.50
68691;DHT22;55675;49.588;8.640;2022-11-06T12:25:14;16.40;62.10
68691;DHT22;55675;49.588;8.640;2022-11-06T12:27:43;16.40;62.40
68691;DHT22;55675;49.588;8.640;2022-11-06T12:30:12;16.50;61.30
68691;DHT22;55675;49.588;8.640;2022-11-06T12:35:50;16.40;62.40
68691;DHT22;55675;49.588;8.640;2022-11-06T12:38:46;16.40;62.00
68691;DHT22;55675;49.588;8.640;2022-11-06T12:41:30;16.50;61.90
68691;DHT22;55675;49.588;8.640;2022-11-06T12:43:57;16.50;61.70
68691;DHT22;55675;49.588;8.640;2022-11-06T12:47:00;16.50;61.70
68691;DHT22;55675;49.588;8.640;2022-11-06T12:52:56;16.70;59.10
68691;DHT22;55675;49.588;8.640;2022-11-06T12:55:41;16.70;59.10
68691;DHT22;55675;49.588;8.640;2022-11-06T12:58:28;16.80;58.20
68691;DHT22;55675;49.588;8.640;2022-11-06T13:01:10;16.80;57.30
68691;DHT22;55675;49.588;8.640;2022-11-06T13:06:59;16.60;56.20
68691;DHT22;55675;49.588;8.640;2022-11-06T13:12:41;16.20;56.90
68691;DHT22;55675;49.588;8.640;2022-11-06T13:17:45;15.90;58.80
68691;DHT22;55675;49.588;8.640;2022-11-06T13:22:58;15.60;59.00
68691;DHT22;55675;49.588;8.640;2022-11-06T13:25:47;15.60;60.00
68691;DHT22;55675;49.588;8.640;2022-11-06T13:30:57;15.60;59.70
68691;DHT22;55675;49.588;8.640;2022-11-06T13:33:46;15.60;60.00
68691;DHT22;55675;49.588;8.640;2022-11-06T13:36:13;15.50;59.60
68691;DHT22;55675;49.588;8.640;2022-11-06T13:39:02;15.40;58.90
68691;DHT22;55675;49.588;8.640;2022-11-06T13:41:30;15.30;60.00
68691;DHT22;55675;49.588;8.640;2022-11-06T13:44:03;15.20;60.30
68691;DHT22;55675;49.588;8.640;2022-11-06T13:46:50;15.10;60.20
68691;DHT22;55675;49.588;8.640;2022-11-06T13:49:24;15.00;59.90
68691;DHT22;55675;49.588;8.640;2022-11-06T13:52:01;14.90;60.30
68691;DHT22;55675;49.588;8.640;2022-11-06T13:57:30;14.70;60.70
68691;DHT22;55675;49.588;8.640;2022-11-06T14:00:05;14.70;61.60
68691;DHT22;55675;49.588;8.640;2022-11-06T14:07:52;14.50;62.80
68691;DHT22;55675;49.588;8.640;2022-11-06T14:10:25;14.40;63.20
68691;DHT22;55675;49.588;8.640;2022-11-06T14:12:53;14.40;62.90
68691;DHT22;55675;49.588;8.640;2022-11-06T14:18:05;14.40;64.10
68691;DHT22;55675;49.588;8.640;2022-11-06T14:20:33;14.40;64.50
68691;DHT22;55675;49.588;8.640;2022-11-06T14:28:34;14.40;64.40
68691;DHT22;55675;49.588;8.640;2022-11-06T14:31:00;14.40;64.80
68691;DHT22;55675;49.588;8.640;2022-11-06T14:36:32;14.40;65.20
68691;DHT22;55675;49.588;8.640;2022-11-06T14:38:58;14.40;64.90
68691;DHT22;55675;49.588;8.640;2022-11-06T14:46:37;14.50;64.90
68691;DHT22;55675;49.588;8.640;2022-11-06T14:49:18;14.60;65.30
68691;DHT22;55675;49.588;8.640;2022-11-06T14:51:59;14.60;64.70
68691;DHT22;55675;49.588;8.640;2022-11-06T14:54:25;14.60;64.80
68691;DHT22;55675;49.588;8.640;2022-11-06T14:56:52;14.50;65.10
68691;DHT22;55675;49.588;8.640;2022-11-06T14:59:32;14.40;65.10
68691;DHT22;55675;49.588;8.640;2022-11-06T15:02:18;14.40;65.60
68691;DHT22;55675;49.588;8.640;2022-11-06T15:05:33;14.30;65.50
68691;DHT22;55675;49.588;8.640;2022-11-06T15:13:27;14.10;67.00
68691;DHT22;55675;49.588;8.640;2022-11-06T15:16:01;13.90;66.40
68691;DHT22;55675;49.588;8.640;2022-11-06T15:18:28;13.80;67.10
68691;DHT22;55675;49.588;8.640;2022-11-06T15:21:01;13.80;67.30
68691;DHT22;55675;49.588;8.640;2022-11-06T15:23:53;13.80;67.60
68691;DHT22;55675;49.588;8.640;2022-11-06T15:26:41;13.70;67.90
68691;DHT22;55675;49.588;8.640;2022-11-06T15:31:35;13.60;68.80
68691;DHT22;55675;49.588;8.640;2022-11-06T15:34:22;13.50;69.00
68691;DHT22;55675;49.588;8.640;2022-11-06T15:36:55;13.40;69.30
68691;DHT22;55675;49.588;8.640;2022-11-06T15:39:48;13.40;68.70
68691;DHT22;55675;49.588;8.640;2022-11-06T15:42:16;13.40;69.00
68691;DHT22;55675;49.588;8.640;2022-11-06T15:44:44;13.30;69.40
68691;DHT22;55675;49.588;8.640;2022-11-06T15:47:21;13.30;69.60
68691;DHT22;55675;49.588;8.640;2022-11-06T15:49:47;13.30;70.30
68691;DHT22;55675;49.588;8.640;2022-11-06T15:52:29;13.20;70.10
68691;DHT22;55675;49.588;8.640;2022-11-06T15:54:54;13.20;70.30
68691;DHT22;55675;49.588;8.640;2022-11-06T15:57:23;13.20;70.60
68691;DHT22;55675;49.588;8.640;2022-11-06T15:59:50;13.10;70.90
68691;DHT22;55675;49.588;8.640;2022-11-06T16:02:30;13.10;71.30
68691;DHT22;55675;49.588;8.640;2022-11-06T16:04:56;13.10;71.40
68691;DHT22;55675;49.588;8.640;2022-11-06T16:07:21;13.00;71.60
68691;DHT22;55675;49.588;8.640;2022-11-06T16:09:48;13.00;71.60
68691;DHT22;55675;49.588;8.640;2022-11-06T16:12:16;13.00;72.20
68691;DHT22;55675;49.588;8.640;2022-11-06T16:14:43;13.00;72.10
68691;DHT22;55675;49.588;8.640;2022-11-06T16:17:14;12.90;72.10
68691;DHT22;55675;49.588;8.640;2022-11-06T16:19:43;12.90;71.90
68691;DHT22;55675;49.588;8.640;2022-11-06T16:22:13;12.80;71.70
68691;DHT22;55675;49.588;8.640;2022-11-06T16:24:49;12.90;71.90
68691;DHT22;55675;49.588;8.640;2022-11-06T16:27:17;12.90;71.70
68691;DHT22;55675;49.588;8.640;2022-11-06T16:29:48;12.90;71.70
68691;DHT22;55675;49.588;8.640;2022-11-06T16:32:18;12.80;71.80
68691;DHT22;55675;49.588;8.640;2022-11-06T16:34:46;12.90;71.50
68691;DHT22;55675;49.588;8.640;2022-11-06T16:39:48;12.90;71.50
68691;DHT22;55675;49.588;8.640;2022-11-06T16:42:26;12.90;71.40
68691;DHT22;55675;49.588;8.640;2022-11-06T16:47:32;12.90;71.60
68691;DHT22;55675;49.588;8.640;2022-11-06T16:49:57;12.90;72.60
68691;DHT22;55675;49.588;8.640;2022-11-06T16:52:36;12.90;71.70
68691;DHT22;55675;49.588;8.640;2022-11-06T16:57:55;13.00;72.70
68691;DHT22;55675;49.588;8.640;2022-11-06T17:00:24;13.00;73.40
68691;DHT22;55675;49.588;8.640;2022-11-06T17:02:53;12.90;73.10
68691;DHT22;55675;49.588;8.640;2022-11-06T17:05:21;12.90;73.50
68691;DHT22;55675;49.588;8.640;2022-11-06T17:07:48;13.00;73.90
68691;DHT22;55675;49.588;8.640;2022-11-06T17:10:35;13.00;74.80
68691;DHT22;55675;49.588;8.640;2022-11-06T17:13:25;12.90;74.70
68691;DHT22;55675;49.588;8.640;2022-11-06T17:15:58;12.90;74.90
68691;DHT22;55675;49.588;8.640;2022-11-06T17:18:33;13.00;75.20
68691;DHT22;55675;49.588;8.640;2022-11-06T17:21:30;13.00;75.50
68691;DHT22;55675;49.588;8.640;2022-11-06T17:23:55;13.00;75.70
68691;DHT22;55675;49.588;8.640;2022-11-06T17:26:27;13.10;76.20
68691;DHT22;55675;49.588;8.640;2022-11-06T17:28:54;13.00;76.90
68691;DHT22;55675;49.588;8.640;2022-11-06T17:31:20;13.00;77.00
68691;DHT22;55675;49.588;8.640;2022-11-06T17:33:47;13.00;77.50
68691;DHT22;55675;49.588;8.640;2022-11-06T17:36:20;13.00;77.60
68691;DHT22;55675;49.588;8.640;2022-11-06T17:38:46;12.90;77.80
68691;DHT22;55675;49.588;8.640;2022-11-06T17:41:13;12.90;78.10
68691;DHT22;55675;49.588;8.640;2022-11-06T17:43:57;12.90;78.30
68691;DHT22;55675;49.588;8.640;2022-11-06T17:46:27;12.80;78.40
68691;DHT22;55675;49.588;8.640;2022-11-06T17:48:54;12.80;78.40
68691;DHT22;55675;49.588;8.640;2022-11-06T17:51:20;12.70;78.20
68691;DHT22;55675;49.588;8.640;2022-11-06T17:54:04;12.70;78.00
68691;DHT22;55675;49.588;8.640;2022-11-06T17:56:30;12.60;78.60
68691;DHT22;55675;49.588;8.640;2022-11-06T17:58:55;12.50;78.70
68691;DHT22;55675;49.588;8.640;2022-11-06T18:01:21;12.50;78.70
68691;DHT22;55675;49.588;8.640;2022-11-06T18:03:46;12.40;78.80
68691;DHT22;55675;49.588;8.640;2022-11-06T18:06:13;12.40;79.50
68691;DHT22;55675;49.588;8.640;2022-11-06T18:08:39;12.30;80.00
68691;DHT22;55675;49.588;8.640;2022-11-06T18:11:06;12.30;80.30
68691;DHT22;55675;49.588;8.640;2022-11-06T18:13:33;12.20;80.70
68691;DHT22;55675;49.588;8.640;2022-11-06T18:16:00;12.20;80.90
68691;DHT22;55675;49.588;8.640;2022-11-06T18:18:26;12.10;81.20
68691;DHT22;55675;49.588;8.640;2022-11-06T18:20:51;12.10;81.80